createdAt,value
2022-11-05T00:00:20.096Z,6.40
2022-11-05T00:03:05.648Z,6.30
2022-11-05T00:05:51.081Z,6.30
2022-11-05T00:08:36.845Z,6.20
2022-11-05T00:11:03.765Z,6.20
2022-11-05T00:13:49.437Z,6.10
2022-11-05T00:16:34.860Z,6.10
2022-11-05T00:19:07.533Z,6.00
2022-11-05T00:21:54.625Z,5.90
2022-11-05T00:24:41.458Z,5.90
2022-11-05T00:27:09.012Z,5.90
2022-11-05T00:29:35.888Z,5.80
2022-11-05T00:32:02.902Z,5.80
2022-11-05T00:34:29.835Z,5.80
2022-11-05T00:36:56.814Z,5.80
2022-11-05T00:39:23.673Z,5.70
2022-11-05T00:42:10.511Z,5.70
2022-11-05T00:44:55.926Z,5.60
2022-11-05T00:47:41.420Z,5.60
2022-11-05T00:50:10.745Z,5.40
2022-11-05T00:52:57.083Z,5.30
2022-11-05T00:55:28.489Z,5.20
2022-11-05T00:57:56.264Z,5.20
2022-11-05T01:00:24.815Z,5.30
2022-11-05T01:02:52.204Z,5.30
2022-11-05T01:05:19.480Z,5.10
2022-11-05T01:07:46.378Z,5.20
2022-11-05T01:10:13.319Z,5.10
2022-11-05T01:12:40.313Z,5.00
2022-11-05T01:15:07.671Z,5.00
2022-11-05T01:17:34.743Z,5.10
2022-11-05T01:20:01.998Z,5.10
2022-11-05T01:22:28.898Z,5.10
2022-11-05T01:24:55.821Z,5.20
2022-11-05T01:27:22.750Z,5.20
2022-11-05T01:29:49.629Z,5.20
2022-11-05T01:32:16.537Z,5.10
2022-11-05T01:34:43.534Z,5.20
2022-11-05T01:37:10.594Z,5.20
2022-11-05T01:39:37.498Z,5.30
2022-11-05T01:42:12.928Z,5.20
2022-11-05T01:45:04.553Z,5.20
2022-11-05T01:47:34.588Z,5.20
2022-11-05T01:50:22.178Z,5.20
2022-11-05T01:52:52.579Z,5.20
2022-11-05T01:55:25.165Z,5.10
2022-11-05T01:57:55.551Z,4.90
2022-11-05T02:00:22.492Z,4.80
2022-11-05T02:02:49.665Z,4.70
2022-11-05T02:05:17.580Z,4.60
2022-11-05T02:07:46.833Z,4.60
2022-11-05T02:10:18.030Z,4.70
2022-11-05T02:12:46.852Z,4.60
2022-11-05T02:15:16.903Z,4.60
2022-11-05T02:17:59.185Z,4.60
2022-11-05T02:20:41.266Z,4.60
2022-11-05T02:23:33.306Z,4.70
2022-11-05T02:26:24.642Z,4.60
2022-11-05T02:29:00.916Z,4.50
2022-11-05T02:31:49.396Z,4.40
2022-11-05T02:34:25.258Z,4.40
2022-11-05T02:36:58.221Z,4.30
2022-11-05T02:39:28.097Z,4.30
2022-11-05T02:42:05.980Z,4.30
2022-11-05T02:45:04.491Z,4.30
2022-11-05T02:48:13.302Z,4.30
2022-11-05T02:50:58.137Z,4.30
2022-11-05T02:53:39.941Z,4.30
2022-11-05T02:56:16.982Z,4.20
2022-11-05T02:58:43.885Z,4.20
2022-11-05T03:01:12.547Z,4.10
2022-11-05T03:03:50.183Z,4.00
2022-11-05T03:06:32.013Z,4.00
2022-11-05T03:09:23.792Z,4.10
2022-11-05T03:11:58.941Z,4.10
2022-11-05T03:15:10.395Z,4.20
2022-11-05T03:18:06.387Z,4.20
2022-11-05T03:21:05.693Z,4.30
2022-11-05T03:24:02.199Z,4.40
2022-11-05T03:26:38.011Z,4.40
2022-11-05T03:29:09.930Z,4.40
2022-11-05T03:31:39.563Z,4.50
2022-11-05T03:34:08.140Z,4.60
2022-11-05T03:36:41.501Z,4.50
2022-11-05T03:39:12.046Z,4.40
2022-11-05T03:41:43.392Z,4.40
2022-11-05T03:44:12.826Z,4.50
2022-11-05T03:46:45.312Z,4.40
2022-11-05T03:49:19.090Z,4.40
2022-11-05T03:52:04.225Z,4.30
2022-11-05T03:54:31.635Z,4.40
2022-11-05T03:57:07.961Z,4.50
2022-11-05T03:59:42.295Z,4.50
2022-11-05T04:02:12.225Z,4.30
2022-11-05T04:04:39.804Z,4.20
2022-11-05T04:07:26.130Z,4.10
2022-11-05T04:10:11.689Z,4.00
2022-11-05T04:12:57.420Z,4.10
2022-11-05T04:15:24.828Z,4.20
2022-11-05T04:17:51.734Z,4.20
2022-11-05T04:20:37.542Z,4.10
2022-11-05T04:23:24.958Z,4.10
2022-11-05T04:25:51.950Z,4.20
2022-11-05T04:28:19.081Z,4.30
2022-11-05T04:30:46.012Z,4.20
2022-11-05T04:33:17.015Z,4.20
2022-11-05T04:35:47.956Z,4.00
2022-11-05T04:38:18.646Z,4.00
2022-11-05T04:40:46.952Z,3.90
2022-11-05T04:43:15.892Z,3.90
2022-11-05T04:45:43.622Z,4.00
2022-11-05T04:48:11.551Z,3.90
2022-11-05T04:50:39.332Z,3.90
2022-11-05T04:53:06.268Z,3.90
2022-11-05T04:55:33.165Z,3.80
2022-11-05T04:58:00.105Z,3.60
2022-11-05T05:00:27.237Z,3.50
2022-11-05T05:02:54.335Z,3.50
2022-11-05T05:05:22.951Z,3.50
2022-11-05T05:07:49.851Z,3.50
2022-11-05T05:10:16.843Z,3.50
2022-11-05T05:12:43.802Z,3.60
2022-11-05T05:15:10.686Z,3.60
2022-11-05T05:17:37.622Z,3.60
2022-11-05T05:20:23.322Z,3.60
2022-11-05T05:22:54.857Z,3.60
2022-11-05T05:25:22.736Z,3.60
2022-11-05T05:27:49.788Z,3.60
2022-11-05T05:30:16.908Z,3.70
2022-11-05T05:32:43.889Z,3.60
2022-11-05T05:35:10.979Z,3.60
2022-11-05T05:37:37.885Z,3.60
2022-11-05T05:40:05.093Z,3.50
2022-11-05T05:42:32.692Z,3.40
2022-11-05T05:44:59.572Z,3.40
2022-11-05T05:47:26.588Z,3.50
2022-11-05T05:49:53.556Z,3.50
2022-11-05T05:52:20.461Z,3.40
2022-11-05T05:54:47.585Z,3.40
2022-11-05T05:57:14.472Z,3.50
2022-11-05T05:59:41.391Z,3.50
2022-11-05T06:02:08.533Z,3.40
2022-11-05T06:04:35.517Z,3.40
2022-11-05T06:07:02.382Z,3.30
2022-11-05T06:09:29.374Z,3.30
2022-11-05T06:11:56.303Z,3.30
2022-11-05T06:14:23.153Z,3.30
2022-11-05T06:16:50.015Z,3.40
2022-11-05T06:19:16.898Z,3.30
2022-11-05T06:21:44.045Z,2.80
2022-11-05T06:24:11.027Z,2.50
2022-11-05T06:26:42.889Z,2.50
2022-11-05T06:29:13.058Z,2.60
2022-11-05T06:31:40.549Z,2.70
2022-11-05T06:34:07.667Z,2.50
2022-11-05T06:36:34.672Z,2.50
2022-11-05T06:39:01.581Z,2.60
2022-11-05T06:41:28.494Z,2.70
2022-11-05T06:43:55.429Z,2.70
2022-11-05T06:46:22.349Z,2.70
2022-11-05T06:48:49.279Z,2.80
2022-11-05T06:51:16.184Z,2.80
2022-11-05T06:53:43.097Z,2.80
2022-11-05T06:56:10.241Z,2.90
2022-11-05T06:58:37.354Z,2.90
2022-11-05T07:01:09.874Z,2.80
2022-11-05T07:03:39.800Z,2.70
2022-11-05T07:06:07.554Z,2.60
2022-11-05T07:08:36.384Z,2.60
2022-11-05T07:11:03.974Z,2.50
2022-11-05T07:13:30.910Z,2.50
2022-11-05T07:15:58.423Z,2.50
2022-11-05T07:18:25.521Z,2.50
2022-11-05T07:20:52.471Z,2.50
2022-11-05T07:23:19.482Z,2.50
2022-11-05T07:25:46.467Z,2.50
2022-11-05T07:28:14.871Z,2.60
2022-11-05T07:30:41.793Z,2.60
2022-11-05T07:33:09.854Z,2.60
2022-11-05T07:35:37.065Z,2.60
2022-11-05T07:38:04.104Z,2.50
2022-11-05T07:40:31.113Z,2.60
2022-11-05T07:43:00.307Z,2.80
2022-11-05T07:45:28.940Z,3.00
2022-11-05T07:48:00.961Z,3.40
2022-11-05T07:50:31.139Z,3.60
2022-11-05T07:53:02.740Z,3.60
2022-11-05T07:55:30.467Z,3.50
2022-11-05T07:57:57.417Z,3.40
2022-11-05T08:00:26.348Z,3.40
2022-11-05T08:03:15.064Z,3.40
2022-11-05T08:05:46.962Z,3.40
2022-11-05T08:08:19.026Z,3.40
2022-11-05T08:10:46.484Z,3.50
2022-11-05T08:13:14.654Z,3.50
2022-11-05T08:15:42.969Z,3.50
2022-11-05T08:18:17.592Z,3.50
2022-11-05T08:20:46.609Z,3.40
2022-11-05T08:23:14.398Z,3.30
2022-11-05T08:25:42.248Z,3.30
2022-11-05T08:28:12.259Z,3.30
2022-11-05T08:30:39.770Z,3.40
2022-11-05T08:33:10.075Z,3.40
2022-11-05T08:35:38.470Z,3.50
2022-11-05T08:38:07.374Z,3.50
2022-11-05T08:40:36.250Z,3.60
2022-11-05T08:43:05.562Z,3.80
2022-11-05T08:45:32.886Z,3.80
2022-11-05T08:48:00.600Z,3.80
2022-11-05T08:50:27.832Z,3.90
2022-11-05T08:52:54.943Z,3.90
2022-11-05T08:55:22.059Z,3.70
2022-11-05T08:57:54.527Z,3.70
2022-11-05T09:00:21.553Z,3.70
2022-11-05T09:02:48.451Z,3.80
2022-11-05T09:05:15.433Z,4.40
2022-11-05T09:07:42.864Z,5.20
2022-11-05T09:10:10.019Z,5.70
2022-11-05T09:12:36.915Z,6.20
2022-11-05T09:15:04.288Z,6.10
2022-11-05T09:17:31.252Z,5.70
2022-11-05T09:19:58.247Z,5.80
2022-11-05T09:22:25.222Z,5.40
2022-11-05T09:24:52.075Z,5.20
2022-11-05T09:27:18.965Z,5.20
2022-11-05T09:29:45.920Z,5.30
2022-11-05T09:32:12.907Z,5.30
2022-11-05T09:34:39.817Z,5.20
2022-11-05T09:37:06.720Z,5.10
2022-11-05T09:39:33.645Z,5.20
2022-11-05T09:42:04.617Z,5.00
2022-11-05T09:44:48.293Z,4.90
2022-11-05T09:47:20.769Z,5.00
2022-11-05T09:49:51.954Z,4.90
2022-11-05T09:52:30.925Z,4.70
2022-11-05T09:54:58.379Z,4.60
2022-11-05T09:57:32.574Z,4.50
2022-11-05T10:00:04.399Z,4.60
2022-11-05T10:02:35.515Z,4.60
2022-11-05T10:05:10.163Z,4.60
2022-11-05T10:07:49.594Z,4.70
2022-11-05T10:10:25.591Z,4.70
2022-11-05T10:12:57.209Z,4.70
2022-11-05T10:15:34.654Z,4.70
2022-11-05T10:18:11.772Z,4.70
2022-11-05T10:20:39.895Z,4.70
2022-11-05T10:23:27.070Z,4.80
2022-11-05T10:26:06.657Z,4.90
2022-11-05T10:28:35.018Z,5.00
2022-11-05T10:31:08.275Z,5.00
2022-11-05T10:33:42.673Z,4.90
2022-11-05T10:36:36.905Z,4.90
2022-11-05T10:39:18.700Z,4.80
2022-11-05T10:42:22.941Z,4.80
2022-11-05T10:45:01.818Z,4.90
2022-11-05T10:48:01.195Z,4.70
2022-11-05T10:50:30.060Z,4.80
2022-11-05T10:53:04.459Z,4.80
2022-11-05T10:55:44.677Z,4.70
2022-11-05T10:58:17.308Z,4.70
2022-11-05T11:01:06.937Z,4.70
2022-11-05T11:03:36.099Z,4.70
2022-11-05T11:06:23.313Z,4.80
2022-11-05T11:08:51.648Z,4.80
2022-11-05T11:11:34.289Z,4.90
2022-11-05T11:14:04.752Z,5.00
2022-11-05T11:16:38.488Z,5.00
2022-11-05T11:19:21.259Z,5.10
2022-11-05T11:22:09.249Z,5.20
2022-11-05T11:24:40.282Z,5.40
2022-11-05T11:27:27.753Z,5.40
2022-11-05T11:30:00.688Z,5.50
2022-11-05T11:32:34.411Z,5.50
2022-11-05T11:35:02.284Z,5.60
2022-11-05T11:37:35.947Z,5.70
2022-11-05T11:40:20.690Z,5.70
2022-11-05T11:43:01.013Z,5.70
2022-11-05T11:46:03.736Z,5.70
2022-11-05T11:48:36.469Z,5.70
2022-11-05T11:51:19.196Z,5.80
2022-11-05T11:53:48.831Z,5.80
2022-11-05T11:56:19.175Z,5.80
2022-11-05T11:58:54.269Z,5.70
2022-11-05T12:01:26.948Z,5.80
2022-11-05T12:04:39.235Z,5.80
2022-11-05T12:07:32.259Z,6.00
2022-11-05T12:10:28.489Z,6.10
2022-11-05T12:13:07.198Z,6.20
2022-11-05T12:15:53.133Z,6.20
2022-11-05T12:18:44.658Z,6.30
2022-11-05T12:21:51.295Z,6.30
2022-11-05T12:24:34.271Z,6.30
2022-11-05T12:27:17.844Z,6.40
2022-11-05T12:30:09.510Z,6.50
2022-11-05T12:32:58.994Z,6.50
2022-11-05T12:35:34.810Z,6.60
2022-11-05T12:38:07.435Z,6.50
2022-11-05T12:40:57.406Z,6.60
2022-11-05T12:43:50.710Z,6.70
2022-11-05T12:46:23.249Z,6.70
2022-11-05T12:49:10.858Z,6.80
2022-11-05T12:51:46.828Z,6.80
2022-11-05T12:54:19.608Z,6.90
2022-11-05T12:56:53.590Z,6.90
2022-11-05T12:59:33.082Z,6.90
2022-11-05T13:02:26.093Z,6.90
2022-11-05T13:05:13.995Z,6.90
2022-11-05T13:07:49.509Z,7.00
2022-11-05T13:10:52.003Z,7.10
2022-11-05T13:13:59.745Z,7.10
2022-11-05T13:16:50.900Z,7.10
2022-11-05T13:19:45.794Z,7.10
2022-11-05T13:22:34.555Z,7.10
2022-11-05T13:25:19.443Z,7.20
2022-11-05T13:27:58.261Z,7.20
2022-11-05T13:30:29.564Z,7.20
2022-11-05T13:33:08.732Z,7.20
2022-11-05T13:35:44.749Z,7.20
2022-11-05T13:38:40.532Z,7.20
2022-11-05T13:41:29.014Z,7.30
2022-11-05T13:44:17.679Z,7.20
2022-11-05T13:47:06.079Z,7.30
2022-11-05T13:50:11.497Z,7.30
2022-11-05T13:52:53.442Z,7.40
2022-11-05T13:55:48.318Z,7.50
2022-11-05T13:58:44.300Z,7.50
2022-11-05T14:01:17.106Z,7.60
2022-11-05T14:03:52.615Z,7.60
2022-11-05T14:06:31.837Z,7.60
2022-11-05T14:09:03.322Z,7.70
2022-11-05T14:11:58.248Z,7.80
2022-11-05T14:14:34.101Z,7.80
2022-11-05T14:17:09.998Z,7.90
2022-11-05T14:20:09.382Z,8.20
2022-11-05T14:22:39.964Z,8.20
2022-11-05T14:25:19.056Z,8.30
2022-11-05T14:27:49.346Z,8.30
2022-11-05T14:30:45.542Z,8.30
2022-11-05T14:33:29.806Z,8.30
2022-11-05T14:36:21.847Z,8.20
2022-11-05T14:39:04.139Z,8.30
2022-11-05T14:41:31.499Z,8.30
2022-11-05T14:44:05.758Z,8.30
2022-11-05T14:46:45.768Z,8.30
2022-11-05T14:49:20.165Z,8.30
2022-11-05T14:51:53.641Z,8.30
2022-11-05T14:54:40.170Z,8.40
2022-11-05T14:57:07.396Z,8.70
2022-11-05T14:59:51.762Z,8.70
2022-11-05T15:02:23.102Z,8.60
2022-11-05T15:04:52.783Z,8.60
2022-11-05T15:07:22.667Z,8.50
2022-11-05T15:10:15.490Z,8.60
2022-11-05T15:12:50.675Z,8.50
2022-11-05T15:15:29.997Z,8.60
2022-11-05T15:18:14.067Z,8.50
2022-11-05T15:20:47.594Z,8.40
2022-11-05T15:23:18.190Z,8.70
2022-11-05T15:26:07.672Z,8.60
2022-11-05T15:28:41.122Z,8.60
2022-11-05T15:31:14.257Z,8.90
2022-11-05T15:33:42.685Z,9.10
2022-11-05T15:36:29.288Z,9.10
2022-11-05T15:39:27.485Z,8.90
2022-11-05T15:41:45.107Z,8.90
2022-11-05T15:44:30.410Z,8.90
2022-11-05T15:47:19.976Z,8.70
2022-11-05T15:49:50.777Z,8.70
2022-11-05T15:52:20.644Z,8.60
2022-11-05T15:55:12.051Z,8.40
2022-11-05T15:57:51.176Z,8.30
2022-11-05T16:00:30.125Z,8.20
2022-11-05T16:03:07.983Z,8.10
2022-11-05T16:08:50.066Z,8.00
2022-11-05T16:11:26.455Z,7.90
2022-11-05T16:14:14.354Z,7.70
2022-11-05T16:16:41.736Z,7.60
2022-11-05T16:19:40.844Z,7.60
2022-11-05T16:22:08.555Z,7.50
2022-11-05T16:24:35.481Z,7.50
2022-11-05T16:27:05.166Z,7.50
2022-11-05T16:29:40.203Z,7.40
2022-11-05T16:32:17.676Z,7.40
2022-11-05T16:34:51.173Z,7.40
2022-11-05T16:37:21.129Z,7.40
2022-11-05T16:39:48.147Z,7.40
2022-11-05T16:42:37.413Z,7.30
2022-11-05T16:45:05.050Z,7.20
2022-11-05T16:47:32.066Z,7.10
2022-11-05T16:49:59.122Z,7.00
2022-11-05T16:52:26.168Z,6.90
2022-11-05T16:54:53.274Z,6.70
2022-11-05T16:57:23.323Z,6.70
2022-11-05T16:59:50.359Z,6.70
2022-11-05T17:02:17.486Z,6.70
2022-11-05T17:04:44.666Z,6.70
2022-11-05T17:07:11.826Z,6.80
2022-11-05T17:09:38.775Z,6.80
2022-11-05T17:12:06.079Z,6.90
2022-11-05T17:14:32.961Z,7.00
2022-11-05T17:17:03.428Z,7.10
2022-11-05T17:19:30.361Z,7.10
2022-11-05T17:21:57.313Z,7.20
2022-11-05T17:24:24.438Z,7.20
2022-11-05T17:26:51.407Z,7.10
2022-11-05T17:29:18.319Z,7.10
2022-11-05T17:31:45.183Z,7.10
2022-11-05T17:34:12.179Z,7.00
2022-11-05T17:36:39.171Z,7.00
2022-11-05T17:39:06.080Z,7.00
2022-11-05T17:41:32.982Z,6.90
2022-11-05T17:44:00.673Z,6.90
2022-11-05T17:46:27.831Z,6.80
2022-11-05T17:48:54.812Z,6.80
2022-11-05T17:51:22.087Z,6.80
2022-11-05T17:53:49.447Z,6.90
2022-11-05T17:56:30.578Z,6.80
2022-11-05T17:59:01.169Z,6.70
2022-11-05T18:01:32.991Z,6.70
2022-11-05T18:04:05.437Z,6.70
2022-11-05T18:06:39.706Z,6.70
2022-11-05T18:09:08.709Z,6.60
2022-11-05T18:11:37.067Z,6.60
2022-11-05T18:14:04.723Z,6.50
2022-11-05T18:16:31.897Z,6.50
2022-11-05T18:18:59.050Z,6.40
2022-11-05T18:21:26.075Z,6.40
2022-11-05T18:23:53.110Z,6.30
2022-11-05T18:26:20.251Z,6.30
2022-11-05T18:28:47.305Z,6.30
2022-11-05T18:31:22.346Z,6.20
2022-11-05T18:33:50.303Z,6.30
2022-11-05T18:36:22.041Z,6.40
2022-11-05T18:38:49.846Z,6.40
2022-11-05T18:41:17.473Z,6.40
2022-11-05T18:43:44.631Z,6.40
2022-11-05T18:46:29.375Z,6.40
2022-11-05T18:48:59.810Z,6.40
2022-11-05T18:51:27.168Z,6.40
2022-11-05T18:53:55.493Z,6.30
2022-11-05T18:56:23.157Z,6.30
2022-11-05T18:58:50.599Z,6.30
2022-11-05T19:01:23.913Z,6.30
2022-11-05T19:03:51.578Z,6.30
2022-11-05T19:06:18.757Z,6.30
2022-11-05T19:08:47.147Z,6.30
2022-11-05T19:11:16.448Z,6.20
2022-11-05T19:13:43.798Z,6.20
2022-11-05T19:16:16.378Z,6.20
2022-11-05T19:18:43.993Z,6.20
2022-11-05T19:21:12.951Z,6.20
2022-11-05T19:23:39.954Z,6.20
2022-11-05T19:26:08.645Z,6.20
2022-11-05T19:28:36.136Z,6.20
2022-11-05T19:31:03.707Z,6.20
2022-11-05T19:33:31.441Z,6.20
2022-11-05T19:35:58.376Z,6.20
2022-11-05T19:38:26.384Z,6.20
2022-11-05T19:40:53.310Z,6.20
2022-11-05T19:43:20.251Z,6.20
2022-11-05T19:45:47.141Z,6.20
2022-11-05T19:48:19.136Z,6.10
2022-11-05T19:50:46.530Z,6.10
2022-11-05T19:53:13.518Z,6.10
2022-11-05T19:55:41.437Z,6.10
2022-11-05T19:58:10.253Z,6.10
2022-11-05T20:00:38.299Z,6.10
2022-11-05T20:03:05.487Z,6.00
2022-11-05T20:05:33.980Z,6.00
2022-11-05T20:08:00.950Z,6.00
2022-11-05T20:10:27.933Z,5.90
2022-11-05T20:12:54.828Z,5.90
2022-11-05T20:15:21.782Z,5.90
2022-11-05T20:17:52.651Z,5.80
2022-11-05T20:20:20.762Z,5.90
2022-11-05T20:22:47.744Z,5.90
2022-11-05T20:25:14.886Z,5.90
2022-11-05T20:27:42.812Z,5.90
2022-11-05T20:30:10.396Z,5.80
2022-11-05T20:32:37.490Z,5.80
2022-11-05T20:35:04.593Z,5.80
2022-11-05T20:37:31.489Z,5.70
2022-11-05T20:39:58.457Z,5.70
2022-11-05T20:42:25.376Z,5.60
2022-11-05T20:44:52.255Z,5.60
2022-11-05T20:47:19.213Z,5.60
2022-11-05T20:49:46.080Z,5.60
2022-11-05T20:52:14.669Z,5.60
2022-11-05T20:54:41.610Z,5.50
2022-11-05T20:57:08.530Z,5.40
2022-11-05T20:59:35.407Z,5.40
2022-11-05T21:02:02.539Z,5.40
2022-11-05T21:04:29.545Z,5.40
2022-11-05T21:06:56.456Z,5.40
2022-11-05T21:09:23.465Z,5.50
2022-11-05T21:12:09.152Z,5.50
2022-11-05T21:14:40.472Z,5.50
2022-11-05T21:17:09.512Z,5.50
2022-11-05T21:19:36.717Z,5.40
2022-11-05T21:22:04.984Z,5.30
2022-11-05T21:24:33.218Z,5.40
2022-11-05T21:27:00.624Z,5.20
2022-11-05T21:29:28.028Z,5.00
2022-11-05T21:31:55.154Z,4.80
2022-11-05T21:34:22.070Z,4.80
2022-11-05T21:36:50.353Z,4.80
2022-11-05T21:39:18.179Z,4.80
2022-11-05T21:41:45.055Z,4.80
2022-11-05T21:44:11.977Z,4.90
2022-11-05T21:46:38.960Z,4.90
2022-11-05T21:49:06.119Z,4.90
2022-11-05T21:51:51.690Z,5.00
2022-11-05T21:54:37.079Z,5.00
2022-11-05T21:57:26.932Z,5.00
2022-11-05T21:59:56.498Z,5.00
2022-11-05T22:02:25.104Z,5.00
2022-11-05T22:04:53.921Z,5.00
2022-11-05T22:07:24.724Z,5.00
2022-11-05T22:09:51.763Z,5.10
2022-11-05T22:12:19.176Z,5.10
2022-11-05T22:14:46.271Z,5.00
2022-11-05T22:17:14.079Z,5.00
2022-11-05T22:19:41.146Z,5.00
2022-11-05T22:22:08.585Z,4.90
2022-11-05T22:24:36.543Z,4.90
2022-11-05T22:27:07.802Z,4.80
2022-11-05T22:29:36.297Z,4.60
2022-11-05T22:32:03.896Z,4.50
2022-11-05T22:34:30.801Z,4.40
2022-11-05T22:36:57.729Z,4.40
2022-11-05T22:39:25.053Z,4.40
2022-11-05T22:41:57.139Z,4.30
2022-11-05T22:44:25.442Z,4.20
2022-11-05T22:46:52.546Z,4.20
2022-11-05T22:49:19.630Z,4.30
2022-11-05T22:51:47.348Z,4.30
2022-11-05T22:54:14.225Z,4.30
2022-11-05T22:56:42.667Z,4.40
2022-11-05T22:59:15.750Z,4.40
2022-11-05T23:01:44.408Z,4.50
2022-11-05T23:04:13.095Z,4.50
2022-11-05T23:06:58.871Z,4.60
2022-11-05T23:09:51.526Z,4.60
2022-11-05T23:12:37.793Z,4.60
2022-11-05T23:15:07.876Z,4.60
2022-11-05T23:17:53.219Z,4.50
2022-11-05T23:20:41.738Z,4.50
2022-11-05T23:23:31.327Z,4.40
2022-11-05T23:26:00.135Z,4.40
2022-11-05T23:28:27.154Z,4.20
2022-11-05T23:31:12.709Z,4.00
2022-11-05T23:33:39.656Z,4.00
2022-11-05T23:36:25.539Z,4.00
2022-11-05T23:38:52.487Z,4.00
2022-11-05T23:41:37.830Z,3.90
2022-11-05T23:44:23.416Z,3.70
2022-11-05T23:47:09.166Z,3.70
2022-11-05T23:49:44.041Z,3.70
2022-11-05T23:52:10.967Z,3.70
2022-11-05T23:54:37.987Z,3.70
2022-11-05T23:57:05.189Z,3.80
2022-11-05T23:59:32.102Z,3.80
